createdAt,value
2022-09-11T00:01:26.628Z,85
2022-09-11T00:07:30.101Z,85
2022-09-11T00:09:29.529Z,85
2022-09-11T00:11:29.381Z,85
2022-09-11T00:13:23.878Z,84
2022-09-11T00:15:29.912Z,85
2022-09-11T00:17:29.479Z,84
2022-09-11T00:19:26.739Z,84
2022-09-11T00:21:30.792Z,85
2022-09-11T00:23:29.846Z,84
2022-09-11T00:25:26.706Z,84
2022-09-11T00:31:26.793Z,84
2022-09-11T00:33:26.989Z,85
2022-09-11T00:37:25.908Z,85
2022-09-11T00:39:26.735Z,85
2022-09-11T00:41:27.903Z,85
2022-09-11T00:43:26.963Z,85
2022-09-11T00:45:27.350Z,85
2022-09-11T00:47:29.992Z,85
2022-09-11T00:49:26.785Z,85
2022-09-11T00:51:28.113Z,85
2022-09-11T00:53:29.890Z,85
2022-09-11T00:55:26.665Z,85
2022-09-11T01:01:27.536Z,85
2022-09-11T01:03:26.729Z,85
2022-09-11T01:07:30.277Z,85
2022-09-11T01:09:28.848Z,85
2022-09-11T01:13:25.205Z,85
2022-09-11T01:15:29.942Z,85
2022-09-11T01:17:29.937Z,85
2022-09-11T01:19:26.726Z,85
2022-09-11T01:23:30.374Z,86
2022-09-11T01:25:26.762Z,86
2022-09-11T01:27:29.199Z,87
2022-09-11T01:31:26.730Z,87
2022-09-11T01:37:26.765Z,87
2022-09-11T01:41:29.948Z,88
2022-09-11T01:43:30.630Z,87
2022-09-11T01:45:29.718Z,88
2022-09-11T01:49:26.680Z,88
2022-09-11T01:51:26.958Z,88
2022-09-11T01:53:26.741Z,88
2022-09-11T01:55:26.752Z,87
2022-09-11T01:57:26.743Z,88
2022-09-11T01:59:28.451Z,88
2022-09-11T02:01:26.700Z,87
2022-09-11T02:03:29.693Z,87
2022-09-11T02:07:25.093Z,88
2022-09-11T02:11:26.800Z,88
2022-09-11T02:13:27.892Z,88
2022-09-11T02:15:29.450Z,88
2022-09-11T02:17:26.951Z,87
2022-09-11T02:19:26.757Z,87
2022-09-11T02:25:28.540Z,87
2022-09-11T02:29:29.946Z,87
2022-09-11T02:31:26.796Z,87
2022-09-11T02:33:26.738Z,87
2022-09-11T02:35:26.364Z,87
2022-09-11T02:37:26.800Z,87
2022-09-11T02:39:29.677Z,87
2022-09-11T02:41:29.607Z,87
2022-09-11T02:43:26.758Z,87
2022-09-11T02:45:29.930Z,87
2022-09-11T02:47:29.931Z,86
2022-09-11T02:51:29.712Z,87
2022-09-11T02:55:27.080Z,87
2022-09-11T02:57:29.135Z,87
2022-09-11T02:59:27.018Z,87
2022-09-11T03:01:26.725Z,87
2022-09-11T03:03:30.050Z,87
2022-09-11T03:05:30.260Z,87
2022-09-11T03:07:26.760Z,87
2022-09-11T03:09:28.511Z,87
2022-09-11T03:13:26.763Z,87
2022-09-11T03:15:29.590Z,87
2022-09-11T03:17:30.109Z,87
2022-09-11T03:19:28.275Z,87
2022-09-11T03:21:28.978Z,87
2022-09-11T03:23:29.337Z,87
2022-09-11T03:25:28.395Z,87
2022-09-11T03:29:26.693Z,87
2022-09-11T03:31:28.168Z,87
2022-09-11T03:33:29.930Z,87
2022-09-11T03:35:27.782Z,87
2022-09-11T03:37:26.811Z,87
2022-09-11T03:39:28.704Z,87
2022-09-11T03:43:29.842Z,87
2022-09-11T03:45:31.475Z,87
2022-09-11T03:47:27.057Z,87
2022-09-11T03:49:26.700Z,87
2022-09-11T03:51:29.195Z,87
2022-09-11T03:55:27.894Z,87
2022-09-11T03:57:29.969Z,86
2022-09-11T04:01:29.641Z,87
2022-09-11T04:03:27.919Z,87
2022-09-11T04:07:26.752Z,87
2022-09-11T04:09:27.812Z,87
2022-09-11T04:11:37.285Z,87
2022-09-11T04:13:26.959Z,87
2022-09-11T04:17:25.654Z,87
2022-09-11T04:19:28.020Z,87
2022-09-11T04:21:33.450Z,87
2022-09-11T04:25:27.878Z,87
2022-09-11T04:27:30.306Z,87
2022-09-11T04:31:27.162Z,87
2022-09-11T04:33:28.846Z,87
2022-09-11T04:35:32.736Z,87
2022-09-11T04:37:30.347Z,87
2022-09-11T04:41:29.782Z,87
2022-09-11T04:43:30.423Z,87
2022-09-11T04:55:24.126Z,87
2022-09-11T04:57:29.764Z,87
2022-09-11T04:59:25.949Z,87
2022-09-11T05:01:29.703Z,87
2022-09-11T05:03:26.983Z,87
2022-09-11T05:05:29.360Z,87
2022-09-11T05:07:27.338Z,87
2022-09-11T05:11:29.820Z,87
2022-09-11T05:13:27.191Z,88
2022-09-11T05:19:27.133Z,88
2022-09-11T05:21:29.701Z,88
2022-09-11T05:25:27.111Z,88
2022-09-11T05:31:28.805Z,87
2022-09-11T05:33:27.133Z,87
2022-09-11T05:37:27.100Z,87
2022-09-11T05:39:30.859Z,87
2022-09-11T05:41:29.394Z,87
2022-09-11T05:43:27.183Z,87
2022-09-11T05:45:29.772Z,87
2022-09-11T05:49:27.110Z,87
2022-09-11T05:51:30.181Z,87
2022-09-11T05:55:27.485Z,88
2022-09-11T06:01:29.741Z,88
2022-09-11T06:03:29.916Z,88
2022-09-11T06:05:30.783Z,88
2022-09-11T06:07:33.549Z,88
2022-09-11T06:09:30.696Z,89
2022-09-11T06:13:27.196Z,88
2022-09-11T06:15:45.984Z,88
2022-09-11T06:17:30.373Z,88
2022-09-11T06:19:33.442Z,88
2022-09-11T06:23:30.391Z,88
2022-09-11T06:25:33.278Z,88
2022-09-11T06:27:29.116Z,88
2022-09-11T06:31:27.165Z,88
2022-09-11T06:35:30.937Z,88
2022-09-11T06:37:27.753Z,88
2022-09-11T06:43:27.250Z,88
2022-09-11T06:45:25.915Z,88
2022-09-11T06:49:27.106Z,88
2022-09-11T06:51:30.392Z,88
2022-09-11T06:53:30.366Z,88
2022-09-11T06:55:30.758Z,88
2022-09-11T06:57:29.760Z,88
2022-09-11T06:59:30.371Z,88
2022-09-11T07:01:27.686Z,88
2022-09-11T07:03:31.027Z,88
2022-09-11T07:07:27.107Z,88
2022-09-11T07:09:28.204Z,88
2022-09-11T07:11:30.732Z,88
2022-09-11T07:13:26.510Z,88
2022-09-11T07:15:30.818Z,88
2022-09-11T07:19:28.753Z,88
2022-09-11T07:21:30.826Z,87
2022-09-11T07:25:26.166Z,87
2022-09-11T07:27:29.664Z,87
2022-09-11T07:29:27.913Z,87
2022-09-11T07:31:27.524Z,87
2022-09-11T07:35:27.722Z,86
2022-09-11T07:37:27.773Z,86
2022-09-11T07:41:31.465Z,86
2022-09-11T07:43:30.799Z,86
2022-09-11T07:45:31.344Z,87
2022-09-11T07:47:31.384Z,87
2022-09-11T07:49:31.081Z,87
2022-09-11T07:53:31.531Z,87
2022-09-11T07:55:30.810Z,87
2022-09-11T07:57:31.335Z,87
2022-09-11T07:59:31.204Z,87
2022-09-11T08:01:30.390Z,87
2022-09-11T08:05:31.412Z,87
2022-09-11T08:07:27.658Z,87
2022-09-11T08:09:31.542Z,87
2022-09-11T08:13:29.564Z,87
2022-09-11T08:17:27.057Z,86
2022-09-11T08:19:27.784Z,86
2022-09-11T08:25:27.681Z,86
2022-09-11T08:31:27.687Z,87
2022-09-11T08:37:29.379Z,88
2022-09-11T08:39:32.421Z,88
2022-09-11T08:41:27.736Z,88
2022-09-11T08:43:30.844Z,88
2022-09-11T08:47:28.356Z,87
2022-09-11T08:49:30.826Z,87
2022-09-11T08:51:31.000Z,87
2022-09-11T08:55:28.792Z,86
2022-09-11T08:57:31.335Z,85
2022-09-11T09:01:27.858Z,85
2022-09-11T09:05:31.112Z,84
2022-09-11T09:13:28.920Z,84
2022-09-11T09:15:29.526Z,84
2022-09-11T09:17:27.986Z,83
2022-09-11T09:19:27.689Z,84
2022-09-11T09:25:27.677Z,84
2022-09-11T09:31:27.996Z,83
2022-09-11T09:33:27.684Z,83
2022-09-11T09:35:26.955Z,83
2022-09-11T09:37:27.271Z,83
2022-09-11T09:43:30.978Z,82
2022-09-11T09:49:27.697Z,82
2022-09-11T09:55:27.972Z,82
2022-09-11T10:01:15.351Z,82
2022-09-11T10:07:26.990Z,81
2022-09-11T10:09:30.428Z,82
2022-09-11T10:11:28.381Z,81
2022-09-11T10:13:27.403Z,81
2022-09-11T10:15:29.345Z,81
2022-09-11T10:19:26.140Z,81
2022-09-11T10:25:30.000Z,82
2022-09-11T10:27:30.666Z,82
2022-09-11T10:31:27.251Z,81
2022-09-11T10:33:30.589Z,81
2022-09-11T10:35:30.564Z,80
2022-09-11T10:37:28.982Z,81
2022-09-11T10:39:30.732Z,80
2022-09-11T10:41:30.527Z,80
2022-09-11T10:43:26.983Z,80
2022-09-11T10:45:30.655Z,81
2022-09-11T10:49:30.411Z,81
2022-09-11T10:51:30.770Z,81
2022-09-11T10:55:28.774Z,81
2022-09-11T10:57:30.103Z,81
2022-09-11T10:59:29.130Z,80
2022-09-11T11:01:30.404Z,80
2022-09-11T11:03:30.549Z,80
2022-09-11T11:05:30.645Z,80
2022-09-11T11:07:27.570Z,81
2022-09-11T11:13:27.910Z,80
2022-09-11T11:15:30.532Z,80
2022-09-11T11:17:30.654Z,80
2022-09-11T11:19:27.405Z,80
2022-09-11T11:21:30.667Z,80
2022-09-11T11:25:30.534Z,80
2022-09-11T11:29:29.023Z,79
2022-09-11T11:31:29.770Z,79
2022-09-11T11:33:30.697Z,79
2022-09-11T11:37:27.166Z,78
2022-09-11T11:43:30.702Z,79
2022-09-11T11:45:30.961Z,79
2022-09-11T11:47:30.801Z,80
2022-09-11T11:49:24.745Z,78
2022-09-11T11:53:31.179Z,78
2022-09-11T11:55:26.874Z,79
2022-09-11T11:57:30.771Z,77
2022-09-11T11:59:28.778Z,78
2022-09-11T12:01:28.855Z,78
2022-09-11T12:07:27.645Z,76
2022-09-11T12:13:27.356Z,76
2022-09-11T12:17:30.659Z,77
2022-09-11T12:19:28.549Z,76
2022-09-11T12:21:30.930Z,75
2022-09-11T12:23:28.431Z,76
2022-09-11T12:25:34.351Z,75
2022-09-11T12:31:28.495Z,76
2022-09-11T12:33:31.072Z,75
2022-09-11T12:35:31.188Z,76
2022-09-11T12:37:29.045Z,76
2022-09-11T12:43:31.541Z,74
2022-09-11T12:45:31.155Z,74
2022-09-11T12:49:29.658Z,74
2022-09-11T12:51:31.424Z,75
2022-09-11T12:53:29.295Z,75
2022-09-11T12:55:28.378Z,75
2022-09-11T12:57:31.271Z,75
2022-09-11T13:01:32.243Z,74
2022-09-11T13:03:31.455Z,74
2022-09-11T13:05:31.574Z,74
2022-09-11T13:07:27.786Z,74
2022-09-11T13:09:30.230Z,75
2022-09-11T13:13:28.739Z,74
2022-09-11T13:15:30.489Z,73
2022-09-11T13:17:31.500Z,72
2022-09-11T13:19:29.901Z,73
2022-09-11T13:25:31.248Z,73
2022-09-11T13:29:31.374Z,74
2022-09-11T13:31:27.846Z,73
2022-09-11T13:35:31.721Z,72
2022-09-11T13:37:27.079Z,71
2022-09-11T13:43:34.948Z,70
2022-09-11T13:45:31.664Z,71
2022-09-11T13:49:28.581Z,70
2022-09-11T13:51:31.936Z,71
2022-09-11T13:55:28.825Z,72
2022-09-11T13:57:31.624Z,72
2022-09-11T13:59:31.817Z,72
2022-09-11T14:01:28.580Z,72
2022-09-11T14:07:31.783Z,71
2022-09-11T14:09:30.215Z,71
2022-09-11T14:11:33.457Z,73
2022-09-11T14:13:31.448Z,73
2022-09-11T14:19:27.550Z,72
2022-09-11T14:21:28.634Z,72
2022-09-11T14:25:31.861Z,73
2022-09-11T14:27:31.446Z,72
2022-09-11T14:29:33.913Z,72
2022-09-11T14:31:28.870Z,72
2022-09-11T14:33:29.410Z,72
2022-09-11T14:35:32.104Z,73
2022-09-11T14:37:29.020Z,73
2022-09-11T14:41:31.570Z,74
2022-09-11T14:43:29.127Z,74
2022-09-11T14:45:32.106Z,74
2022-09-11T14:49:32.370Z,75
2022-09-11T14:55:26.984Z,74
2022-09-11T14:57:32.162Z,75
2022-09-11T15:01:29.246Z,75
2022-09-11T15:05:31.583Z,75
2022-09-11T15:07:29.315Z,75
2022-09-11T15:09:32.540Z,75
2022-09-11T15:13:29.402Z,76
2022-09-11T15:15:32.271Z,76
2022-09-11T15:17:32.102Z,77
2022-09-11T15:19:29.370Z,76
2022-09-11T15:21:35.393Z,76
2022-09-11T15:23:32.762Z,76
2022-09-11T15:25:30.509Z,76
2022-09-11T15:31:27.186Z,76
2022-09-11T15:33:32.807Z,77
2022-09-11T15:35:32.977Z,77
2022-09-11T15:37:31.287Z,77
2022-09-11T15:39:32.532Z,77
2022-09-11T15:43:29.567Z,77
2022-09-11T15:45:32.672Z,76
2022-09-11T15:47:35.874Z,75
2022-09-11T15:49:30.841Z,75
2022-09-11T15:53:32.793Z,74
2022-09-11T15:55:32.216Z,75
2022-09-11T16:01:34.739Z,75
2022-09-11T16:03:32.470Z,75
2022-09-11T16:07:31.016Z,75
2022-09-11T16:11:33.042Z,75
2022-09-11T16:13:29.997Z,76
2022-09-11T16:19:31.335Z,77
2022-09-11T16:25:28.173Z,76
2022-09-11T16:29:51.429Z,76
2022-09-11T16:31:32.691Z,77
2022-09-11T16:33:33.598Z,77
2022-09-11T16:39:30.186Z,76
2022-09-11T16:41:33.625Z,77
2022-09-11T16:43:28.621Z,77
2022-09-11T16:45:34.504Z,77
2022-09-11T16:49:44.880Z,76
2022-09-11T16:53:34.351Z,77
2022-09-11T16:55:32.887Z,77
2022-09-11T16:57:34.394Z,78
2022-09-11T16:59:34.431Z,78
2022-09-11T17:01:34.337Z,77
2022-09-11T17:05:31.017Z,80
2022-09-11T17:07:31.909Z,80
2022-09-11T17:11:34.667Z,80
2022-09-11T17:13:31.284Z,80
2022-09-11T17:15:34.637Z,80
2022-09-11T17:19:33.750Z,81
2022-09-11T17:25:34.095Z,81
2022-09-11T17:27:34.935Z,82
2022-09-11T17:29:34.690Z,81
2022-09-11T17:31:29.350Z,81
2022-09-11T17:33:50.722Z,82
2022-09-11T17:38:39.397Z,82
2022-09-11T17:57:25.022Z,83
2022-09-11T18:08:40.617Z,85
2022-09-11T18:18:00.631Z,84
2022-09-11T18:25:17.165Z,83
2022-09-11T18:27:14.350Z,83
2022-09-11T18:29:17.433Z,83
2022-09-11T18:31:14.866Z,83
2022-09-11T18:33:14.640Z,84
2022-09-11T18:35:14.175Z,84
2022-09-11T18:37:14.357Z,84
2022-09-11T18:39:14.403Z,83
2022-09-11T18:41:14.838Z,83
2022-09-11T18:43:14.423Z,83
2022-09-11T18:47:17.401Z,84
2022-09-11T18:49:14.611Z,84
2022-09-11T18:51:14.407Z,84
2022-09-11T18:53:15.322Z,84
2022-09-11T18:55:20.526Z,84
2022-09-11T18:57:14.865Z,84
2022-09-11T18:59:16.110Z,84
2022-09-11T19:01:17.951Z,83
2022-09-11T19:03:17.170Z,83
2022-09-11T19:05:17.927Z,84
2022-09-11T19:07:14.436Z,84
2022-09-11T19:09:14.441Z,85
2022-09-11T19:11:14.524Z,85
2022-09-11T19:15:14.443Z,85
2022-09-11T19:17:14.942Z,85
2022-09-11T19:19:14.916Z,85
2022-09-11T19:21:14.411Z,85
2022-09-11T19:23:14.499Z,85
2022-09-11T19:25:14.428Z,85
2022-09-11T19:27:14.469Z,85
2022-09-11T19:31:14.578Z,86
2022-09-11T19:33:14.462Z,85
2022-09-11T19:35:14.799Z,85
2022-09-11T19:37:14.474Z,85
2022-09-11T19:39:14.454Z,86
2022-09-11T19:41:14.478Z,86
2022-09-11T19:43:14.248Z,86
2022-09-11T19:45:14.480Z,86
2022-09-11T19:47:14.777Z,86
2022-09-11T19:49:16.170Z,86
2022-09-11T19:51:14.430Z,86
2022-09-11T19:53:17.394Z,86
2022-09-11T19:55:14.422Z,86
2022-09-11T19:57:14.919Z,86
2022-09-11T19:59:14.599Z,86
2022-09-11T20:01:14.766Z,86
2022-09-11T20:05:23.643Z,87
2022-09-11T20:09:30.231Z,87
2022-09-11T20:15:14.438Z,87
2022-09-11T20:17:14.475Z,87
2022-09-11T20:19:14.549Z,87
2022-09-11T20:21:14.444Z,87
2022-09-11T20:23:11.820Z,87
2022-09-11T20:25:14.441Z,87
2022-09-11T20:27:14.474Z,87
2022-09-11T20:29:14.464Z,87
2022-09-11T20:33:14.826Z,87
2022-09-11T20:35:15.101Z,87
2022-09-11T20:39:18.888Z,87
2022-09-11T20:41:14.407Z,87
2022-09-11T20:43:20.441Z,87
2022-09-11T20:45:14.426Z,87
2022-09-11T20:47:16.040Z,87
2022-09-11T20:49:14.527Z,87
2022-09-11T20:51:14.438Z,88
2022-09-11T20:53:16.102Z,88
2022-09-11T20:55:14.450Z,88
2022-09-11T20:57:14.466Z,87
2022-09-11T20:59:14.550Z,87
2022-09-11T21:01:14.532Z,87
2022-09-11T21:03:14.426Z,87
2022-09-11T21:07:14.468Z,87
2022-09-11T21:09:14.490Z,87
2022-09-11T21:11:14.514Z,87
2022-09-11T21:13:14.515Z,87
2022-09-11T21:15:20.244Z,87
2022-09-11T21:17:14.464Z,87
2022-09-11T21:19:14.442Z,87
2022-09-11T21:21:14.488Z,87
2022-09-11T21:23:16.095Z,87
2022-09-11T21:25:14.468Z,87
2022-09-11T21:27:14.836Z,87
2022-09-11T21:29:14.491Z,88
2022-09-11T21:31:14.457Z,88
2022-09-11T21:33:17.596Z,88
2022-09-11T21:35:14.483Z,88
2022-09-11T21:37:14.295Z,88
2022-09-11T21:39:16.039Z,88
2022-09-11T21:41:17.642Z,88
2022-09-11T21:43:14.476Z,88
2022-09-11T21:45:14.469Z,88
2022-09-11T21:47:14.493Z,88
2022-09-11T21:49:14.511Z,88
2022-09-11T21:51:14.448Z,88
2022-09-11T21:53:14.515Z,88
2022-09-11T21:55:14.474Z,88
2022-09-11T21:57:14.447Z,88
2022-09-11T22:01:18.675Z,88
2022-09-11T22:03:14.461Z,88
2022-09-11T22:05:11.790Z,88
2022-09-11T22:07:17.333Z,88
2022-09-11T22:09:14.452Z,88
2022-09-11T22:11:17.669Z,88
2022-09-11T22:13:17.546Z,88
2022-09-11T22:15:14.406Z,88
2022-09-11T22:17:17.557Z,88
2022-09-11T22:19:14.519Z,88
2022-09-11T22:21:14.460Z,87
2022-09-11T22:23:14.274Z,87
2022-09-11T22:25:14.471Z,87
2022-09-11T22:29:14.218Z,88
2022-09-11T22:31:14.557Z,88
2022-09-11T22:35:14.453Z,88
2022-09-11T22:37:14.499Z,88
2022-09-11T22:39:14.457Z,88
2022-09-11T22:41:14.254Z,87
2022-09-11T22:43:14.723Z,87
2022-09-11T22:45:17.610Z,86
2022-09-11T22:47:17.897Z,86
2022-09-11T22:49:14.515Z,87
2022-09-11T22:51:17.328Z,87
2022-09-11T22:53:17.610Z,87
2022-09-11T22:55:17.592Z,87
2022-09-11T22:57:17.389Z,87
2022-09-11T22:59:14.494Z,87
2022-09-11T23:01:16.065Z,87
2022-09-11T23:03:14.504Z,87
2022-09-11T23:05:14.519Z,87
2022-09-11T23:07:21.053Z,87
2022-09-11T23:11:14.672Z,87
2022-09-11T23:13:17.863Z,87
2022-09-11T23:15:14.447Z,87
2022-09-11T23:17:14.870Z,87
2022-09-11T23:19:14.688Z,88
2022-09-11T23:21:14.447Z,88
2022-09-11T23:23:14.557Z,88
2022-09-11T23:25:14.468Z,88
2022-09-11T23:27:14.519Z,88
2022-09-11T23:31:14.489Z,89
2022-09-11T23:33:14.482Z,89
2022-09-11T23:35:14.776Z,89
2022-09-11T23:39:17.642Z,89
2022-09-11T23:41:14.468Z,89
2022-09-11T23:43:14.468Z,89
2022-09-11T23:45:17.610Z,89
2022-09-11T23:47:14.790Z,89
2022-09-11T23:49:11.880Z,89
2022-09-11T23:51:14.447Z,89
2022-09-11T23:53:14.528Z,89
2022-09-11T23:55:14.283Z,89
2022-09-11T23:57:17.638Z,89
